createdAt,value
2023-05-21T00:01:52.508Z,99.90
2023-05-21T00:04:25.481Z,99.90
2023-05-21T00:07:00.935Z,99.90
2023-05-21T00:09:32.709Z,99.90
2023-05-21T00:12:05.988Z,99.90
2023-05-21T00:14:37.823Z,99.90
2023-05-21T00:17:09.598Z,99.90
2023-05-21T00:19:41.387Z,99.90
2023-05-21T00:22:14.211Z,99.90
2023-05-21T00:24:46.154Z,99.90
2023-05-21T00:27:18.077Z,99.90
2023-05-21T00:29:49.981Z,99.90
2023-05-21T00:32:22.468Z,99.90
2023-05-21T00:34:54.651Z,99.90
2023-05-21T00:37:29.752Z,99.90
2023-05-21T00:40:02.679Z,99.90
2023-05-21T00:42:39.227Z,99.90
2023-05-21T00:45:11.053Z,99.90
2023-05-21T00:47:44.142Z,99.90
2023-05-21T00:50:16.290Z,99.90
2023-05-21T00:52:48.993Z,99.90
2023-05-21T00:55:21.066Z,99.90
2023-05-21T00:57:53.058Z,99.90
2023-05-21T01:00:26.495Z,99.90
2023-05-21T01:02:58.557Z,99.90
2023-05-21T01:05:30.945Z,99.90
2023-05-21T01:08:03.365Z,99.90
2023-05-21T01:10:35.159Z,99.90
2023-05-21T01:13:07.449Z,99.90
2023-05-21T01:15:39.321Z,99.90
2023-05-21T01:18:12.198Z,99.90
2023-05-21T01:20:48.212Z,99.90
2023-05-21T01:23:20.944Z,99.90
2023-05-21T01:25:52.690Z,99.90
2023-05-21T01:28:24.461Z,99.90
2023-05-21T01:31:00.012Z,99.90
2023-05-21T01:33:48.808Z,99.90
2023-05-21T01:36:28.859Z,99.90
2023-05-21T01:39:07.698Z,99.90
2023-05-21T01:41:44.920Z,99.90
2023-05-21T01:44:18.912Z,99.90
2023-05-21T01:46:52.199Z,99.90
2023-05-21T01:49:24.821Z,99.90
2023-05-21T01:51:57.003Z,99.90
2023-05-21T01:54:28.788Z,99.90
2023-05-21T01:57:01.589Z,99.90
2023-05-21T01:59:33.926Z,99.90
2023-05-21T02:02:06.064Z,99.90
2023-05-21T02:04:41.253Z,99.90
2023-05-21T02:07:15.089Z,99.90
2023-05-21T02:09:47.933Z,99.90
2023-05-21T02:12:19.701Z,99.90
2023-05-21T02:14:51.515Z,99.90
2023-05-21T02:17:24.360Z,99.90
2023-05-21T02:19:56.180Z,99.90
2023-05-21T02:22:27.942Z,99.90
2023-05-21T02:25:00.329Z,99.90
2023-05-21T02:27:32.501Z,99.90
2023-05-21T02:30:05.777Z,99.90
2023-05-21T02:32:37.903Z,99.90
2023-05-21T02:35:11.618Z,99.90
2023-05-21T02:37:44.087Z,99.90
2023-05-21T02:40:16.346Z,99.90
2023-05-21T02:42:48.125Z,99.90
2023-05-21T02:45:23.756Z,99.90
2023-05-21T02:47:55.720Z,99.90
2023-05-21T02:50:27.671Z,99.90
2023-05-21T02:53:02.594Z,99.90
2023-05-21T02:55:35.566Z,99.90
2023-05-21T02:58:07.596Z,99.90
2023-05-21T03:00:39.495Z,99.90
2023-05-21T03:03:11.955Z,99.90
2023-05-21T03:05:43.751Z,99.90
2023-05-21T03:08:15.823Z,99.90
2023-05-21T03:10:47.821Z,99.90
2023-05-21T03:13:19.725Z,99.90
2023-05-21T03:15:56.080Z,99.90
2023-05-21T03:18:28.900Z,99.90
2023-05-21T03:21:01.103Z,99.90
2023-05-21T03:23:32.851Z,99.90
2023-05-21T03:26:04.741Z,99.90
2023-05-21T03:28:37.235Z,99.90
2023-05-21T03:31:09.378Z,99.90
2023-05-21T03:33:55.865Z,99.90
2023-05-21T03:36:31.199Z,99.90
2023-05-21T03:39:04.269Z,99.90
2023-05-21T03:41:38.299Z,99.90
2023-05-21T03:44:14.081Z,99.90
2023-05-21T03:46:54.864Z,99.90
2023-05-21T03:49:32.576Z,99.90
2023-05-21T03:52:04.737Z,99.90
2023-05-21T03:54:36.640Z,99.90
2023-05-21T03:57:12.200Z,99.90
2023-05-21T03:59:43.983Z,99.90
2023-05-21T04:02:15.981Z,99.90
2023-05-21T04:04:47.968Z,99.90
2023-05-21T04:07:20.336Z,99.90
2023-05-21T04:09:52.144Z,99.90
2023-05-21T04:12:24.044Z,99.90
2023-05-21T04:14:55.979Z,99.90
2023-05-21T04:17:28.539Z,99.90
2023-05-21T04:20:01.421Z,99.90
2023-05-21T04:22:35.281Z,99.90
2023-05-21T04:25:07.268Z,99.90
2023-05-21T04:27:43.525Z,99.90
2023-05-21T04:30:15.427Z,99.90
2023-05-21T04:32:49.178Z,99.90
2023-05-21T04:35:21.328Z,99.90
2023-05-21T04:37:55.030Z,99.90
2023-05-21T04:40:26.829Z,99.90
2023-05-21T04:43:00.153Z,99.90
2023-05-21T04:45:32.764Z,99.90
2023-05-21T04:48:05.219Z,99.90
2023-05-21T04:50:37.096Z,99.90
2023-05-21T04:53:09.005Z,99.90
2023-05-21T04:55:41.885Z,99.90
2023-05-21T04:58:13.816Z,99.90
2023-05-21T05:00:51.648Z,99.90
2023-05-21T05:03:23.607Z,99.90
2023-05-21T05:05:56.358Z,99.90
2023-05-21T05:08:28.104Z,99.90
2023-05-21T05:11:00.046Z,99.90
2023-05-21T05:13:31.843Z,99.90
2023-05-21T05:16:03.907Z,99.90
2023-05-21T05:18:36.645Z,99.90
2023-05-21T05:21:08.563Z,99.90
2023-05-21T05:23:40.448Z,99.90
2023-05-21T05:26:13.696Z,99.90
2023-05-21T05:28:46.370Z,99.90
2023-05-21T05:31:18.766Z,99.90
2023-05-21T05:33:50.895Z,99.90
2023-05-21T05:36:22.705Z,99.90
2023-05-21T05:38:54.443Z,99.90
2023-05-21T05:41:27.140Z,99.90
2023-05-21T05:43:59.001Z,99.90
2023-05-21T05:46:34.411Z,99.90
2023-05-21T05:49:06.218Z,99.90
2023-05-21T05:51:38.017Z,99.90
2023-05-21T05:54:09.800Z,99.90
2023-05-21T05:56:41.700Z,99.90
2023-05-21T05:59:13.734Z,99.90
2023-05-21T06:01:51.735Z,99.90
2023-05-21T06:04:23.639Z,99.90
2023-05-21T06:06:58.000Z,99.90
2023-05-21T06:09:29.894Z,99.90
2023-05-21T06:12:01.884Z,99.90
2023-05-21T06:14:34.004Z,99.90
2023-05-21T06:17:05.833Z,99.90
2023-05-21T06:19:37.628Z,99.90
2023-05-21T06:22:09.467Z,99.90
2023-05-21T06:24:41.254Z,99.90
2023-05-21T06:27:14.437Z,99.90
2023-05-21T06:29:46.637Z,99.90
2023-05-21T06:32:18.783Z,99.90
2023-05-21T06:34:50.640Z,99.90
2023-05-21T06:37:26.451Z,99.90
2023-05-21T06:39:58.446Z,99.90
2023-05-21T06:42:30.205Z,99.90
2023-05-21T06:45:20.808Z,99.90
2023-05-21T06:47:55.469Z,99.90
2023-05-21T06:50:28.435Z,99.90
2023-05-21T06:53:01.196Z,99.90
2023-05-21T06:55:34.070Z,99.90
2023-05-21T06:58:19.367Z,99.90
2023-05-21T07:00:52.186Z,99.90
2023-05-21T07:03:24.175Z,99.90
2023-05-21T07:05:57.795Z,99.90
2023-05-21T07:08:29.534Z,99.90
2023-05-21T07:11:01.789Z,99.90
2023-05-21T07:13:34.978Z,99.90
2023-05-21T07:16:07.380Z,99.90
2023-05-21T07:18:39.257Z,99.90
2023-05-21T07:21:11.246Z,99.90
2023-05-21T07:23:43.037Z,99.90
2023-05-21T07:26:14.786Z,99.90
2023-05-21T07:28:46.679Z,99.90
2023-05-21T07:31:18.547Z,99.90
2023-05-21T07:33:53.202Z,99.90
2023-05-21T07:36:29.593Z,99.90
2023-05-21T07:39:01.647Z,99.90
2023-05-21T07:41:33.936Z,99.90
2023-05-21T07:44:08.745Z,99.90
2023-05-21T07:46:44.576Z,99.40
2023-05-21T07:49:17.273Z,99.90
2023-05-21T07:51:50.725Z,98.90
2023-05-21T07:54:22.656Z,97.50
2023-05-21T07:56:54.508Z,98.30
2023-05-21T07:59:49.561Z,97.60
2023-05-21T08:02:21.510Z,95.70
2023-05-21T08:04:55.015Z,97.30
2023-05-21T08:07:27.609Z,96.60
2023-05-21T08:09:59.845Z,96.50
2023-05-21T08:12:32.970Z,96.20
2023-05-21T08:15:05.373Z,96.60
2023-05-21T08:17:39.479Z,96.10
2023-05-21T08:20:14.393Z,95.60
2023-05-21T08:22:48.307Z,96.20
2023-05-21T08:25:20.094Z,94.60
2023-05-21T08:27:52.583Z,94.00
2023-05-21T08:30:24.730Z,94.30
2023-05-21T08:32:56.778Z,95.10
2023-05-21T08:35:29.022Z,94.80
2023-05-21T08:38:16.977Z,95.40
2023-05-21T08:40:59.665Z,95.80
2023-05-21T08:43:31.654Z,95.40
2023-05-21T08:46:04.784Z,96.00
2023-05-21T08:48:41.455Z,96.10
2023-05-21T08:51:13.937Z,96.80
2023-05-21T08:53:51.594Z,97.00
2023-05-21T08:56:25.930Z,97.20
2023-05-21T08:58:59.763Z,97.50
2023-05-21T09:01:38.177Z,97.30
2023-05-21T09:04:20.872Z,97.50
2023-05-21T09:06:57.824Z,96.60
2023-05-21T09:09:57.701Z,95.90
2023-05-21T09:12:30.569Z,96.00
2023-05-21T09:15:04.365Z,95.80
2023-05-21T09:17:39.660Z,93.90
2023-05-21T09:20:28.546Z,94.70
2023-05-21T09:23:17.208Z,93.70
2023-05-21T09:25:52.020Z,92.90
2023-05-21T09:28:36.229Z,93.10
2023-05-21T09:31:08.029Z,92.70
2023-05-21T09:33:47.500Z,92.40
2023-05-21T09:36:20.850Z,92.90
2023-05-21T09:38:54.043Z,92.10
2023-05-21T09:41:33.549Z,92.60
2023-05-21T09:44:05.696Z,92.00
2023-05-21T09:46:40.643Z,91.40
2023-05-21T09:49:33.402Z,91.80
2023-05-21T09:52:05.715Z,89.30
2023-05-21T09:54:37.452Z,90.50
2023-05-21T09:57:09.249Z,91.00
2023-05-21T09:59:41.418Z,90.50
2023-05-21T10:02:19.426Z,90.50
2023-05-21T10:04:52.947Z,90.40
2023-05-21T10:07:27.055Z,90.00
2023-05-21T10:10:00.953Z,88.90
2023-05-21T10:12:33.580Z,89.50
2023-05-21T10:15:09.220Z,89.10
2023-05-21T10:17:41.702Z,89.80
2023-05-21T10:20:13.579Z,89.20
2023-05-21T10:22:46.284Z,86.10
2023-05-21T10:25:18.894Z,84.40
2023-05-21T10:27:50.752Z,86.10
2023-05-21T10:30:24.230Z,85.90
2023-05-21T10:32:57.217Z,85.80
2023-05-21T10:35:30.752Z,86.30
2023-05-21T10:38:04.810Z,84.90
2023-05-21T10:40:36.953Z,86.30
2023-05-21T10:43:38.867Z,87.70
2023-05-21T10:46:24.555Z,87.10
2023-05-21T10:49:16.199Z,85.10
2023-05-21T10:52:11.999Z,85.60
2023-05-21T10:55:20.997Z,84.40
2023-05-21T10:58:15.946Z,85.20
2023-05-21T11:00:48.448Z,83.60
2023-05-21T11:03:20.915Z,82.20
2023-05-21T11:05:56.547Z,81.00
2023-05-21T11:08:37.474Z,78.60
2023-05-21T11:11:09.384Z,79.00
2023-05-21T11:13:49.165Z,76.50
2023-05-21T11:16:25.842Z,78.80
2023-05-21T11:18:57.699Z,75.10
2023-05-21T11:21:31.198Z,75.10
2023-05-21T11:24:07.531Z,75.80
2023-05-21T11:26:48.468Z,77.20
2023-05-21T11:29:20.241Z,78.00
2023-05-21T11:32:02.747Z,76.50
2023-05-21T11:34:43.568Z,74.60
2023-05-21T11:37:18.270Z,74.30
2023-05-21T11:39:51.051Z,73.80
2023-05-21T11:42:30.238Z,75.60
2023-05-21T11:45:05.688Z,75.10
2023-05-21T11:47:37.499Z,78.40
2023-05-21T11:50:13.548Z,78.80
2023-05-21T11:52:45.517Z,78.00
2023-05-21T11:55:22.346Z,77.00
2023-05-21T11:57:55.509Z,77.40
2023-05-21T12:00:27.415Z,77.80
2023-05-21T12:02:59.364Z,75.60
2023-05-21T12:05:31.316Z,76.00
2023-05-21T12:08:06.262Z,76.30
2023-05-21T12:10:39.611Z,75.70
2023-05-21T12:13:11.468Z,73.90
2023-05-21T12:15:45.103Z,74.20
2023-05-21T12:18:16.876Z,76.00
2023-05-21T12:20:48.742Z,74.20
2023-05-21T12:23:26.615Z,75.00
2023-05-21T12:25:59.477Z,74.30
2023-05-21T12:28:32.042Z,73.70
2023-05-21T12:31:03.883Z,71.80
2023-05-21T12:33:35.813Z,72.20
2023-05-21T12:36:07.612Z,71.00
2023-05-21T12:38:39.424Z,70.30
2023-05-21T12:41:11.259Z,70.70
2023-05-21T12:43:43.114Z,71.50
2023-05-21T12:46:17.610Z,71.00
2023-05-21T12:48:51.515Z,71.20
2023-05-21T12:51:23.363Z,70.20
2023-05-21T12:53:55.108Z,69.50
2023-05-21T12:56:26.855Z,69.00
2023-05-21T12:58:58.691Z,68.00
2023-05-21T13:01:30.822Z,70.60
2023-05-21T13:04:05.009Z,69.60
2023-05-21T13:06:43.987Z,68.80
2023-05-21T13:09:15.920Z,68.50
2023-05-21T13:11:47.650Z,68.10
2023-05-21T13:14:19.393Z,69.40
2023-05-21T13:16:51.117Z,67.90
2023-05-21T13:19:22.980Z,69.00
2023-05-21T13:21:55.132Z,70.10
2023-05-21T13:24:26.885Z,69.90
2023-05-21T13:26:58.684Z,70.40
2023-05-21T13:29:30.416Z,69.40
2023-05-21T13:32:02.342Z,70.00
2023-05-21T13:34:34.047Z,71.00
2023-05-21T13:37:05.776Z,70.30
2023-05-21T13:39:37.625Z,71.60
2023-05-21T13:42:09.380Z,69.20
2023-05-21T13:44:41.313Z,69.70
2023-05-21T13:47:13.595Z,69.60
2023-05-21T13:49:45.374Z,69.10
2023-05-21T13:52:17.164Z,70.50
2023-05-21T13:54:48.922Z,69.90
2023-05-21T13:57:20.960Z,70.70
2023-05-21T13:59:53.314Z,69.50
2023-05-21T14:02:25.192Z,70.80
2023-05-21T14:04:57.094Z,69.20
2023-05-21T14:07:28.926Z,69.00
2023-05-21T14:10:01.427Z,67.40
2023-05-21T14:12:33.401Z,68.60
2023-05-21T14:15:05.677Z,68.80
2023-05-21T14:17:40.065Z,68.40
2023-05-21T14:20:12.422Z,66.20
2023-05-21T14:22:44.189Z,65.10
2023-05-21T14:25:15.974Z,65.60
2023-05-21T14:27:47.702Z,65.70
2023-05-21T14:30:19.600Z,65.40
2023-05-21T14:32:51.440Z,66.60
2023-05-21T14:35:23.202Z,64.70
2023-05-21T14:37:55.151Z,65.20
2023-05-21T14:40:26.911Z,67.30
2023-05-21T14:42:58.793Z,65.80
2023-05-21T14:45:30.652Z,66.60
2023-05-21T14:48:08.242Z,67.90
2023-05-21T14:50:40.909Z,67.10
2023-05-21T14:53:12.689Z,67.00
2023-05-21T14:55:45.359Z,66.70
2023-05-21T14:58:17.612Z,67.70
2023-05-21T15:00:49.410Z,65.30
2023-05-21T15:03:21.301Z,67.40
2023-05-21T15:05:53.318Z,66.90
2023-05-21T15:08:25.295Z,66.20
2023-05-21T15:10:57.229Z,66.70
2023-05-21T15:13:29.038Z,66.80
2023-05-21T15:16:00.967Z,63.90
2023-05-21T15:18:32.841Z,65.70
2023-05-21T15:21:05.476Z,63.80
2023-05-21T15:23:37.211Z,63.90
2023-05-21T15:26:09.224Z,65.30
2023-05-21T15:28:41.029Z,66.80
2023-05-21T15:31:12.810Z,65.60
2023-05-21T15:33:44.597Z,65.60
2023-05-21T15:36:16.350Z,65.20
2023-05-21T15:38:48.124Z,63.60
2023-05-21T15:41:21.985Z,63.60
2023-05-21T15:43:53.754Z,64.20
2023-05-21T15:46:25.736Z,65.20
2023-05-21T15:48:57.566Z,65.30
2023-05-21T15:51:29.341Z,64.50
2023-05-21T15:54:01.250Z,63.80
2023-05-21T15:56:33.006Z,65.20
2023-05-21T15:59:04.867Z,66.30
2023-05-21T16:01:36.663Z,67.00
2023-05-21T16:04:08.766Z,67.30
2023-05-21T16:06:40.761Z,65.80
2023-05-21T16:09:12.498Z,67.40
2023-05-21T16:11:44.817Z,67.60
2023-05-21T16:14:16.584Z,67.40
2023-05-21T16:16:48.383Z,65.80
2023-05-21T16:19:20.218Z,66.20
2023-05-21T16:21:52.230Z,66.30
2023-05-21T16:24:23.984Z,65.80
2023-05-21T16:26:55.781Z,65.40
2023-05-21T16:29:27.513Z,66.30
2023-05-21T16:31:59.325Z,65.90
2023-05-21T16:34:31.635Z,63.80
2023-05-21T16:37:03.523Z,65.40
2023-05-21T16:39:35.383Z,66.20
2023-05-21T16:42:07.172Z,65.20
2023-05-21T16:44:39.239Z,65.60
2023-05-21T16:47:11.037Z,66.10
2023-05-21T16:49:42.786Z,65.30
2023-05-21T16:52:14.525Z,66.50
2023-05-21T16:54:48.793Z,65.80
2023-05-21T16:57:20.658Z,65.50
2023-05-21T16:59:52.426Z,66.20
2023-05-21T17:02:24.824Z,65.90
2023-05-21T17:04:56.819Z,66.00
2023-05-21T17:07:28.719Z,66.60
2023-05-21T17:10:00.481Z,67.40
2023-05-21T17:12:32.275Z,66.50
2023-05-21T17:15:04.454Z,66.00
2023-05-21T17:17:36.204Z,66.30
2023-05-21T17:20:08.564Z,67.50
2023-05-21T17:22:40.463Z,67.80
2023-05-21T17:25:12.285Z,67.60
2023-05-21T17:27:44.001Z,68.70
2023-05-21T17:30:15.897Z,69.00
2023-05-21T17:32:47.697Z,69.40
2023-05-21T17:35:19.549Z,69.60
2023-05-21T17:37:53.224Z,71.30
2023-05-21T17:40:25.320Z,71.20
2023-05-21T17:42:57.056Z,71.20
2023-05-21T17:45:28.794Z,71.30
2023-05-21T17:48:01.100Z,72.00
2023-05-21T17:50:34.187Z,71.50
2023-05-21T17:53:05.995Z,71.70
2023-05-21T17:55:37.978Z,72.10
2023-05-21T17:58:12.910Z,72.20
2023-05-21T18:00:44.810Z,72.60
2023-05-21T18:03:16.656Z,73.10
2023-05-21T18:05:49.212Z,73.60
2023-05-21T18:08:21.012Z,73.60
2023-05-21T18:10:52.781Z,75.10
2023-05-21T18:13:24.547Z,75.20
2023-05-21T18:15:56.754Z,75.60
2023-05-21T18:18:28.525Z,78.20
2023-05-21T18:21:00.317Z,77.60
2023-05-21T18:23:32.068Z,77.70
2023-05-21T18:26:04.404Z,77.80
2023-05-21T18:28:36.213Z,78.50
2023-05-21T18:31:07.961Z,77.60
2023-05-21T18:33:39.759Z,78.60
2023-05-21T18:36:11.651Z,78.60
2023-05-21T18:38:44.031Z,81.10
2023-05-21T18:41:15.927Z,81.10
2023-05-21T18:43:47.681Z,81.50
2023-05-21T18:46:19.997Z,83.00
2023-05-21T18:48:51.810Z,85.90
2023-05-21T18:51:23.894Z,87.80
2023-05-21T18:53:55.621Z,87.80
2023-05-21T18:56:27.436Z,86.50
2023-05-21T18:58:59.184Z,88.90
2023-05-21T19:01:31.124Z,90.10
2023-05-21T19:04:03.209Z,90.60
2023-05-21T19:06:35.024Z,91.00
2023-05-21T19:09:06.763Z,91.40
2023-05-21T19:11:38.747Z,91.90
2023-05-21T19:14:10.589Z,92.30
2023-05-21T19:16:42.362Z,92.90
2023-05-21T19:19:14.198Z,93.30
2023-05-21T19:21:46.055Z,93.70
2023-05-21T19:24:17.877Z,94.20
2023-05-21T19:26:49.609Z,94.50
2023-05-21T19:29:21.519Z,94.80
2023-05-21T19:31:58.284Z,95.00
2023-05-21T19:34:30.179Z,95.40
2023-05-21T19:37:02.258Z,95.80
2023-05-21T19:39:38.382Z,96.40
2023-05-21T19:42:10.722Z,96.70
2023-05-21T19:44:42.749Z,96.80
2023-05-21T19:47:14.698Z,96.80
2023-05-21T19:49:46.566Z,96.90
2023-05-21T19:52:18.500Z,97.30
2023-05-21T19:54:50.386Z,97.70
2023-05-21T19:57:22.130Z,98.00
2023-05-21T19:59:53.853Z,98.30
2023-05-21T20:02:26.624Z,98.80
2023-05-21T20:04:59.038Z,98.90
2023-05-21T20:07:31.321Z,99.10
2023-05-21T20:10:03.205Z,99.40
2023-05-21T20:12:35.584Z,99.70
2023-05-21T20:15:07.851Z,99.90
2023-05-21T20:17:42.228Z,99.90
2023-05-21T20:20:16.717Z,99.90
2023-05-21T20:22:49.265Z,99.90
2023-05-21T20:25:21.085Z,99.90
2023-05-21T20:27:53.383Z,99.90
2023-05-21T20:30:31.477Z,99.90
2023-05-21T20:33:03.562Z,99.90
2023-05-21T20:35:35.423Z,99.90
2023-05-21T20:38:07.487Z,99.90
2023-05-21T20:40:39.469Z,99.90
2023-05-21T20:43:15.215Z,99.90
2023-05-21T20:45:48.115Z,99.90
2023-05-21T20:48:21.593Z,99.90
2023-05-21T20:50:53.335Z,99.90
2023-05-21T20:53:26.017Z,99.90
2023-05-21T20:55:57.811Z,99.90
2023-05-21T20:58:29.587Z,99.90
2023-05-21T21:01:01.817Z,99.90
2023-05-21T21:03:34.319Z,99.90
2023-05-21T21:06:06.630Z,99.90
2023-05-21T21:08:40.275Z,99.90
2023-05-21T21:11:13.165Z,99.90
2023-05-21T21:13:45.095Z,99.90
2023-05-21T21:16:16.954Z,99.90
2023-05-21T21:18:48.857Z,99.90
2023-05-21T21:21:20.726Z,99.90
2023-05-21T21:23:52.484Z,99.90
2023-05-21T21:26:24.608Z,99.90
2023-05-21T21:28:56.508Z,99.90
2023-05-21T21:31:29.573Z,99.90
2023-05-21T21:34:01.428Z,99.90
2023-05-21T21:36:33.345Z,99.90
2023-05-21T21:39:05.088Z,99.90
2023-05-21T21:41:36.959Z,99.90
2023-05-21T21:44:08.866Z,99.90
2023-05-21T21:46:40.805Z,99.90
2023-05-21T21:49:14.263Z,99.90
2023-05-21T21:51:46.205Z,99.90
2023-05-21T21:54:17.955Z,99.90
2023-05-21T21:56:49.759Z,99.90
2023-05-21T21:59:22.332Z,99.90
2023-05-21T22:01:54.181Z,99.90
2023-05-21T22:04:26.035Z,99.90
2023-05-21T22:06:57.828Z,99.90
2023-05-21T22:09:29.612Z,99.90
2023-05-21T22:12:07.527Z,99.90
2023-05-21T22:14:39.367Z,99.90
2023-05-21T22:17:11.339Z,99.90
2023-05-21T22:19:44.040Z,99.90
2023-05-21T22:22:15.856Z,99.90
2023-05-21T22:24:47.589Z,99.90
2023-05-21T22:27:19.364Z,99.90
2023-05-21T22:29:51.251Z,99.90
2023-05-21T22:32:23.023Z,99.90
2023-05-21T22:34:54.764Z,99.90
2023-05-21T22:37:27.326Z,99.90
2023-05-21T22:39:59.055Z,99.90
2023-05-21T22:42:30.807Z,99.90
2023-05-21T22:45:02.951Z,99.90
2023-05-21T22:47:37.043Z,99.90
2023-05-21T22:50:10.157Z,99.90
2023-05-21T22:52:43.292Z,99.90
2023-05-21T22:55:16.373Z,99.90
2023-05-21T22:57:48.129Z,99.90
2023-05-21T23:00:20.112Z,99.90
2023-05-21T23:02:53.962Z,99.90
2023-05-21T23:05:26.522Z,99.90
2023-05-21T23:07:58.282Z,99.90
2023-05-21T23:10:29.995Z,99.90
2023-05-21T23:13:01.828Z,99.90
2023-05-21T23:15:33.677Z,99.90
2023-05-21T23:18:07.558Z,99.90
2023-05-21T23:20:40.956Z,99.90
2023-05-21T23:23:13.211Z,99.90
2023-05-21T23:25:45.804Z,99.90
2023-05-21T23:28:17.519Z,99.90
2023-05-21T23:30:49.281Z,99.90
2023-05-21T23:33:21.577Z,99.90
2023-05-21T23:35:53.360Z,99.90
2023-05-21T23:38:25.471Z,99.90
2023-05-21T23:40:57.218Z,99.90
2023-05-21T23:43:28.958Z,99.90
2023-05-21T23:46:00.727Z,99.90
2023-05-21T23:48:33.205Z,99.90
2023-05-21T23:51:04.955Z,99.90
2023-05-21T23:53:36.754Z,99.90
2023-05-21T23:56:08.492Z,99.90
2023-05-21T23:58:40.292Z,99.90
